Time;durP1;ratioP1;P1;durP2;ratioP2;P2;SDS_P1;SDS_P2;PMS_P1;PMS_P2;Temp;Humidity;BMP_temperature;BMP_pressure;BME280_temperature;BME280_humidity;BME280_pressure;Samples;Min_cycle;Max_cycle;Signal;HPM_P1;HPM_P2
2024/04/22 00:06:15;;;;;;;;;;;2.30;99.90;;;;;;6632378;89;20079;-76
2024/04/22 00:16:16;;;;;;;;;;;2.20;99.90;;;;;;6629879;89;20161;-76
2024/04/22 00:26:16;;;;;;;;;;;2.10;99.90;;;;;;6627386;89;20461;-75
2024/04/22 00:36:16;;;;;;;;;;;2.20;99.90;;;;;;6625815;89;20185;-76
2024/04/22 00:46:17;;;;;;;;;;;2.20;99.90;;;;;;6624960;89;20517;-77
2024/04/22 00:56:18;;;;;;;;;;;2.00;99.90;;;;;;6622162;89;20064;-76
2024/04/22 01:06:19;;;;;;;;;;;2.10;99.90;;;;;;6627519;89;20062;-76
2024/04/22 01:16:19;;;;;;;;;;;2.00;99.90;;;;;;6628952;89;20232;-76
2024/04/22 01:26:20;;;;;;;;;;;1.90;99.90;;;;;;6623296;89;20087;-76
2024/04/22 01:36:20;;;;;;;;;;;1.70;99.90;;;;;;6626776;89;20047;-77
2024/04/22 01:46:21;;;;;;;;;;;1.70;99.90;;;;;;6637510;89;20146;-76
2024/04/22 01:56:21;;;;;;;;;;;1.60;99.90;;;;;;6626456;89;20097;-76
2024/04/22 02:06:21;;;;;;;;;;;1.30;99.90;;;;;;6624725;88;20193;-76
2024/04/22 02:16:22;;;;;;;;;;;1.20;99.90;;;;;;6623186;89;20540;-76
2024/04/22 02:26:22;;;;;;;;;;;1.00;99.90;;;;;;6614631;89;20088;-75
2024/04/22 02:36:23;;;;;;;;;;;0.90;99.90;;;;;;6626472;89;20673;-76
2024/04/22 02:46:23;;;;;;;;;;;0.70;99.90;;;;;;6633169;89;20066;-76
2024/04/22 02:56:24;;;;;;;;;;;0.80;99.90;;;;;;6623671;89;20063;-76
2024/04/22 03:06:24;;;;;;;;;;;0.70;99.90;;;;;;6632095;89;20081;-76
2024/04/22 03:16:25;;;;;;;;;;;0.70;99.90;;;;;;6630879;89;20192;-76
2024/04/22 03:26:25;;;;;;;;;;;0.70;99.90;;;;;;6637458;89;20112;-75
2024/04/22 03:36:26;;;;;;;;;;;0.70;99.90;;;;;;6622999;89;20156;-76
2024/04/22 03:56:59;;;;;;;;;;;0.50;99.90;;;;;;6654432;88;20612;-75
2024/04/22 04:07:00;;;;;;;;;;;0.50;99.90;;;;;;6665560;88;20124;-75
2024/04/22 04:17:00;;;;;;;;;;;0.50;99.90;;;;;;6631730;89;20083;-75
2024/04/22 04:27:00;;;;;;;;;;;0.60;99.90;;;;;;6617696;89;20120;-76
2024/04/22 04:37:02;;;;;;;;;;;0.80;99.90;;;;;;6625299;89;20203;-76
2024/04/22 04:47:03;;;;;;;;;;;0.80;99.90;;;;;;6627235;89;20075;-75
2024/04/22 04:57:03;;;;;;;;;;;0.90;99.90;;;;;;6614025;89;20059;-76
2024/04/22 05:07:04;;;;;;;;;;;0.80;99.90;;;;;;6633909;89;20142;-75
2024/04/22 05:17:04;;;;;;;;;;;1.00;99.90;;;;;;6647828;89;20066;-75
2024/04/22 05:27:05;;;;;;;;;;;1.10;99.90;;;;;;6624764;89;20058;-75
2024/04/22 05:37:05;;;;;;;;;;;1.40;99.90;;;;;;6615213;89;20067;-77
2024/04/22 05:47:06;;;;;;;;;;;1.70;99.90;;;;;;6620280;89;20197;-75
2024/04/22 05:57:06;;;;;;;;;;;1.70;99.90;;;;;;6645077;78;20074;-77
2024/04/22 06:07:07;;;;;;;;;;;2.10;99.90;;;;;;6636421;89;20061;-78
2024/04/22 06:17:07;;;;;;;;;;;2.40;99.90;;;;;;6633211;88;20082;-78
2024/04/22 06:27:08;;;;;;;;;;;2.80;99.90;;;;;;6631858;88;20132;-78
2024/04/22 06:37:08;;;;;;;;;;;3.10;99.90;;;;;;6644040;88;20093;-77
2024/04/22 06:47:08;;;;;;;;;;;3.50;99.90;;;;;;6634216;88;20130;-77
2024/04/22 06:57:10;;;;;;;;;;;4.00;99.90;;;;;;6637281;89;20149;-77
2024/04/22 07:07:10;;;;;;;;;;;4.50;99.90;;;;;;6637676;89;20071;-77
2024/04/22 07:17:12;;;;;;;;;;;4.70;99.90;;;;;;6638876;88;20058;-78
2024/04/22 07:27:13;;;;;;;;;;;4.80;99.90;;;;;;6652832;88;20164;-76
2024/04/22 07:37:18;;;;;;;;;;;5.40;99.90;;;;;;6651397;88;20670;-77
2024/04/22 07:47:18;;;;;;;;;;;6.60;99.90;;;;;;6644787;89;20053;-78
2024/04/22 07:57:20;;;;;;;;;;;7.50;99.90;;;;;;6637711;89;20061;-77
2024/04/22 08:07:20;;;;;;;;;;;8.10;99.90;;;;;;6633042;89;20057;-77
2024/04/22 08:17:21;;;;;;;;;;;8.70;99.90;;;;;;6699308;88;20091;-77
2024/04/22 08:27:21;;;;;;;;;;;9.60;99.90;;;;;;6691670;88;20080;-78
2024/04/22 08:37:22;;;;;;;;;;;10.30;99.90;;;;;;6629679;88;20184;-78
2024/04/22 08:47:22;;;;;;;;;;;10.60;99.90;;;;;;6629217;89;20659;-77
2024/04/22 08:57:23;;;;;;;;;;;12.00;99.90;;;;;;6639067;89;20097;-78
2024/04/22 09:07:23;;;;;;;;;;;12.00;99.90;;;;;;6636301;88;20625;-77
2024/04/22 09:17:23;;;;;;;;;;;12.10;99.90;;;;;;6628524;89;20082;-77
2024/04/22 09:27:27;;;;;;;;;;;13.10;99.30;;;;;;6630686;88;20084;-78
2024/04/22 09:37:30;;;;;;;;;;;14.40;97.60;;;;;;6637764;88;20089;-80
2024/04/22 09:47:31;;;;;;;;;;;14.60;97.30;;;;;;6644554;89;20151;-80
2024/04/22 09:57:33;;;;;;;;;;;14.00;96.40;;;;;;6662642;88;20100;-80
2024/04/22 10:07:33;;;;;;;;;;;15.50;93.40;;;;;;6649417;88;20111;-80
2024/04/22 10:17:34;;;;;;;;;;;14.30;93.40;;;;;;6642672;88;20138;-80
2024/04/22 10:27:35;;;;;;;;;;;12.90;95.10;;;;;;6645954;88;20208;-79
2024/04/22 10:37:35;;;;;;;;;;;12.40;95.50;;;;;;6637907;88;20066;-81
2024/04/22 10:47:36;;;;;;;;;;;11.10;96.60;;;;;;6625820;88;20379;-79
2024/04/22 10:57:36;;;;;;;;;;;10.80;96.20;;;;;;6624684;88;20058;-80
2024/04/22 11:07:38;;;;;;;;;;;10.80;96.00;;;;;;6625870;88;20096;-81
2024/04/22 11:17:38;;;;;;;;;;;12.80;94.30;;;;;;6632180;88;20073;-80
2024/04/22 11:27:39;;;;;;;;;;;13.80;91.60;;;;;;6629860;88;20710;-82
2024/04/22 11:37:40;;;;;;;;;;;13.00;90.90;;;;;;6627442;88;20520;-80
2024/04/22 11:47:40;;;;;;;;;;;11.70;92.80;;;;;;6638026;88;20093;-79
2024/04/22 11:57:41;;;;;;;;;;;12.90;92.80;;;;;;6660520;88;20758;-80
2024/04/22 12:07:42;;;;;;;;;;;15.20;90.30;;;;;;6651356;88;20069;-80
2024/04/22 12:17:43;;;;;;;;;;;14.60;90.60;;;;;;6646995;88;20095;-79
2024/04/22 12:27:43;;;;;;;;;;;15.00;91.60;;;;;;6647259;88;20621;-78
2024/04/22 12:37:43;;;;;;;;;;;12.10;95.40;;;;;;6661524;88;20152;-79
2024/04/22 12:58:03;;;;;;;;;;;9.80;96.80;;;;;;6642544;88;20534;-78
2024/04/22 13:08:04;;;;;;;;;;;12.20;96.00;;;;;;6653903;88;20092;-80
2024/04/22 13:18:04;;;;;;;;;;;12.30;94.20;;;;;;6672939;88;20051;-79
2024/04/22 13:28:05;;;;;;;;;;;10.50;96.10;;;;;;6652954;88;20026;-78
2024/04/22 13:38:05;;;;;;;;;;;8.60;99.90;;;;;;6654140;88;20059;-79
2024/04/22 13:48:06;;;;;;;;;;;6.60;99.90;;;;;;6647865;88;20485;-79
2024/04/22 13:58:06;;;;;;;;;;;5.20;99.90;;;;;;6647861;88;20085;-80
2024/04/22 14:08:07;;;;;;;;;;;5.50;99.90;;;;;;6645482;88;20082;-78
2024/04/22 14:18:07;;;;;;;;;;;5.20;99.90;;;;;;6654044;88;20059;-82
2024/04/22 14:28:08;;;;;;;;;;;5.80;99.90;;;;;;6648571;88;20130;-79
2024/04/22 14:38:08;;;;;;;;;;;6.60;99.90;;;;;;6646331;88;20095;-80
2024/04/22 14:48:09;;;;;;;;;;;6.80;99.90;;;;;;6650440;88;20040;-79
2024/04/22 14:58:09;;;;;;;;;;;7.40;99.90;;;;;;6660611;88;20599;-80
2024/04/22 15:08:10;;;;;;;;;;;7.90;99.90;;;;;;6649364;88;20058;-82
2024/04/22 15:18:10;;;;;;;;;;;8.90;99.90;;;;;;6648215;88;20634;-81
2024/04/22 15:28:12;;;;;;;;;;;9.90;99.90;;;;;;6648368;88;20270;-81
2024/04/22 15:38:13;;;;;;;;;;;10.70;99.90;;;;;;6647463;88;20067;-80
2024/04/22 15:48:19;;;;;;;;;;;11.20;99.90;;;;;;6652843;88;20053;-81
2024/04/22 15:58:20;;;;;;;;;;;11.40;99.90;;;;;;6652677;88;20548;-80
2024/04/22 16:08:20;;;;;;;;;;;11.10;99.90;;;;;;6657284;88;20029;-80
2024/04/22 16:18:21;;;;;;;;;;;11.20;99.90;;;;;;6656050;89;20081;-81
2024/04/22 16:28:22;;;;;;;;;;;10.80;99.90;;;;;;6650546;89;20115;-80
2024/04/22 16:38:22;;;;;;;;;;;10.40;99.90;;;;;;6640770;88;20112;-81
2024/04/22 16:48:23;;;;;;;;;;;10.50;99.90;;;;;;6645049;88;20062;-80
2024/04/22 16:58:23;;;;;;;;;;;9.80;99.90;;;;;;6637775;88;20085;-82
2024/04/22 17:08:24;;;;;;;;;;;9.10;99.90;;;;;;6629121;88;20675;-79
2024/04/22 17:18:24;;;;;;;;;;;8.90;99.90;;;;;;6642450;88;20695;-81
2024/04/22 17:28:27;;;;;;;;;;;8.60;99.90;;;;;;6669777;88;20039;-80
2024/04/22 17:38:27;;;;;;;;;;;8.40;99.90;;;;;;6655675;89;20641;-80
2024/04/22 17:48:28;;;;;;;;;;;8.30;99.90;;;;;;6657902;78;20141;-76
2024/04/22 17:58:28;;;;;;;;;;;7.70;99.90;;;;;;6667056;89;20098;-77
2024/04/22 18:08:29;;;;;;;;;;;7.30;99.90;;;;;;6659237;89;20061;-77
2024/04/22 18:18:29;;;;;;;;;;;7.00;99.90;;;;;;6666620;89;20069;-78
2024/04/22 18:28:30;;;;;;;;;;;6.50;99.90;;;;;;6655203;89;20231;-76
2024/04/22 18:38:30;;;;;;;;;;;6.40;99.90;;;;;;6667023;89;20112;-75
2024/04/22 18:48:31;;;;;;;;;;;6.20;99.90;;;;;;6643636;89;20175;-76
2024/04/22 18:58:31;;;;;;;;;;;6.00;99.90;;;;;;6652427;89;20500;-76
2024/04/22 19:08:32;;;;;;;;;;;5.90;99.90;;;;;;6661245;89;20074;-75
2024/04/22 19:18:32;;;;;;;;;;;5.60;99.90;;;;;;6650387;89;20083;-76
2024/04/22 19:28:33;;;;;;;;;;;5.40;99.90;;;;;;6652627;89;20116;-75
2024/04/22 19:38:33;;;;;;;;;;;5.20;99.90;;;;;;6654448;89;20061;-74
2024/04/22 19:48:33;;;;;;;;;;;5.10;99.90;;;;;;6653804;89;20107;-76
2024/04/22 19:58:34;;;;;;;;;;;5.00;99.90;;;;;;6655182;89;20526;-76
2024/04/22 20:08:34;;;;;;;;;;;5.00;99.90;;;;;;6661234;89;20082;-76
2024/04/22 20:18:52;;;;;;;;;;;4.90;99.90;;;;;;6667121;89;20114;-76
2024/04/22 20:28:53;;;;;;;;;;;4.70;99.90;;;;;;6656569;89;20085;-76
2024/04/22 20:38:53;;;;;;;;;;;4.70;99.90;;;;;;6657708;89;20229;-75
2024/04/22 20:48:54;;;;;;;;;;;4.70;99.90;;;;;;6651606;89;20107;-76
2024/04/22 20:58:55;;;;;;;;;;;4.70;99.90;;;;;;6652071;89;20149;-76
2024/04/22 21:08:57;;;;;;;;;;;4.80;99.90;;;;;;6654177;89;20111;-76
2024/04/22 21:18:58;;;;;;;;;;;4.40;99.90;;;;;;6649603;89;20085;-76
2024/04/22 21:28:58;;;;;;;;;;;4.50;99.90;;;;;;6659889;89;20567;-77
2024/04/22 21:38:59;;;;;;;;;;;4.30;99.90;;;;;;6652566;89;20094;-77
2024/04/22 21:48:59;;;;;;;;;;;4.10;99.90;;;;;;6654165;89;20532;-76
2024/04/22 21:59:19;;;;;;;;;;;4.10;99.90;;;;;;6655641;89;20189;-76
2024/04/22 22:09:22;;;;;;;;;;;4.30;99.90;;;;;;6658223;89;20081;-77
2024/04/22 22:19:22;;;;;;;;;;;3.90;99.90;;;;;;6658216;89;20061;-77
2024/04/22 22:29:23;;;;;;;;;;;3.80;99.90;;;;;;6656740;89;20077;-76
2024/04/22 22:39:23;;;;;;;;;;;3.70;99.90;;;;;;6654808;89;20079;-77
2024/04/22 22:49:24;;;;;;;;;;;3.40;99.90;;;;;;6652859;89;20132;-77
2024/04/22 22:59:24;;;;;;;;;;;3.50;99.90;;;;;;6654430;89;20073;-76
2024/04/22 23:09:25;;;;;;;;;;;3.40;99.90;;;;;;6652829;89;20107;-76
2024/04/22 23:19:25;;;;;;;;;;;3.30;99.90;;;;;;6649958;89;20127;-76
2024/04/22 23:29:26;;;;;;;;;;;3.30;99.90;;;;;;6648052;89;20062;-77
2024/04/22 23:39:26;;;;;;;;;;;2.90;99.90;;;;;;6655865;89;20082;-77
2024/04/22 23:49:31;;;;;;;;;;;2.60;99.90;;;;;;6660376;77;20202;-78
2024/04/22 23:59:31;;;;;;;;;;;2.50;99.90;;;;;;6624878;88;20080;-78
